sensor_id;sensor_type;location;lat;lon;timestamp;P1;durP1;ratioP1;P2;durP2;ratioP2
12141;SDS011;6134;59.284;18.022;2024-02-15T00:02:11;13.90;;;6.03;;
12141;SDS011;6134;59.284;18.022;2024-02-15T00:04:39;10.43;;;5.55;;
12141;SDS011;6134;59.284;18.022;2024-02-15T00:07:09;13.48;;;5.70;;
12141;SDS011;6134;59.284;18.022;2024-02-15T00:09:38;17.48;;;5.95;;
12141;SDS011;6134;59.284;18.022;2024-02-15T00:12:06;17.38;;;6.57;;
12141;SDS011;6134;59.284;18.022;2024-02-15T00:14:37;19.92;;;6.18;;
12141;SDS011;6134;59.284;18.022;2024-02-15T00:17:06;16.48;;;5.80;;
12141;SDS011;6134;59.284;18.022;2024-02-15T00:19:35;15.35;;;6.38;;
12141;SDS011;6134;59.284;18.022;2024-02-15T00:22:05;10.55;;;5.53;;
12141;SDS011;6134;59.284;18.022;2024-02-15T00:24:36;17.15;;;6.70;;
12141;SDS011;6134;59.284;18.022;2024-02-15T00:27:05;15.75;;;5.63;;
12141;SDS011;6134;59.284;18.022;2024-02-15T00:29:34;13.90;;;5.75;;
12141;SDS011;6134;59.284;18.022;2024-02-15T00:32:05;22.35;;;5.90;;
12141;SDS011;6134;59.284;18.022;2024-02-15T00:34:34;15.05;;;5.72;;
12141;SDS011;6134;59.284;18.022;2024-02-15T00:37:03;19.38;;;7.00;;
12141;SDS011;6134;59.284;18.022;2024-02-15T00:39:34;15.88;;;5.72;;
12141;SDS011;6134;59.284;18.022;2024-02-15T00:42:03;16.98;;;5.97;;
12141;SDS011;6134;59.284;18.022;2024-02-15T00:44:32;10.95;;;6.15;;
12141;SDS011;6134;59.284;18.022;2024-02-15T00:47:01;13.98;;;5.72;;
12141;SDS011;6134;59.284;18.022;2024-02-15T00:49:31;12.82;;;5.47;;
12141;SDS011;6134;59.284;18.022;2024-02-15T00:52:00;17.45;;;5.90;;
12141;SDS011;6134;59.284;18.022;2024-02-15T00:54:30;12.98;;;4.82;;
12141;SDS011;6134;59.284;18.022;2024-02-15T00:59:53;19.90;;;5.35;;
12141;SDS011;6134;59.284;18.022;2024-02-15T01:02:22;18.52;;;5.38;;
12141;SDS011;6134;59.284;18.022;2024-02-15T01:04:52;18.90;;;5.95;;
12141;SDS011;6134;59.284;18.022;2024-02-15T01:07:24;11.85;;;5.53;;
12141;SDS011;6134;59.284;18.022;2024-02-15T01:09:54;13.65;;;5.88;;
12141;SDS011;6134;59.284;18.022;2024-02-15T01:12:23;11.43;;;5.13;;
12141;SDS011;6134;59.284;18.022;2024-02-15T01:14:51;18.83;;;6.60;;
12141;SDS011;6134;59.284;18.022;2024-02-15T01:17:20;13.23;;;5.40;;
12141;SDS011;6134;59.284;18.022;2024-02-15T01:19:50;11.50;;;5.40;;
12141;SDS011;6134;59.284;18.022;2024-02-15T01:22:21;11.98;;;5.38;;
12141;SDS011;6134;59.284;18.022;2024-02-15T01:24:53;16.95;;;6.55;;
12141;SDS011;6134;59.284;18.022;2024-02-15T01:27:23;14.30;;;5.47;;
12141;SDS011;6134;59.284;18.022;2024-02-15T01:29:54;12.88;;;5.22;;
12141;SDS011;6134;59.284;18.022;2024-02-15T01:32:23;19.33;;;5.80;;
12141;SDS011;6134;59.284;18.022;2024-02-15T01:34:52;12.95;;;5.60;;
12141;SDS011;6134;59.284;18.022;2024-02-15T01:37:23;13.25;;;6.05;;
12141;SDS011;6134;59.284;18.022;2024-02-15T01:39:52;11.90;;;5.40;;
12141;SDS011;6134;59.284;18.022;2024-02-15T01:42:21;15.45;;;5.70;;
12141;SDS011;6134;59.284;18.022;2024-02-15T01:44:49;20.02;;;5.57;;
12141;SDS011;6134;59.284;18.022;2024-02-15T01:47:19;10.50;;;5.65;;
12141;SDS011;6134;59.284;18.022;2024-02-15T01:49:49;10.85;;;5.20;;
12141;SDS011;6134;59.284;18.022;2024-02-15T01:52:19;12.45;;;5.55;;
12141;SDS011;6134;59.284;18.022;2024-02-15T01:54:49;14.70;;;5.28;;
12141;SDS011;6134;59.284;18.022;2024-02-15T01:57:19;12.07;;;5.22;;
12141;SDS011;6134;59.284;18.022;2024-02-15T01:59:49;11.25;;;5.22;;
12141;SDS011;6134;59.284;18.022;2024-02-15T02:02:21;13.02;;;5.53;;
12141;SDS011;6134;59.284;18.022;2024-02-15T02:04:50;11.13;;;6.18;;
12141;SDS011;6134;59.284;18.022;2024-02-15T02:07:19;15.30;;;5.60;;
12141;SDS011;6134;59.284;18.022;2024-02-15T02:09:49;20.20;;;5.63;;
12141;SDS011;6134;59.284;18.022;2024-02-15T02:12:18;8.93;;;5.57;;
12141;SDS011;6134;59.284;18.022;2024-02-15T02:14:47;9.93;;;6.07;;
12141;SDS011;6134;59.284;18.022;2024-02-15T02:17:16;13.82;;;5.63;;
12141;SDS011;6134;59.284;18.022;2024-02-15T02:19:46;11.93;;;5.60;;
12141;SDS011;6134;59.284;18.022;2024-02-15T02:22:16;21.17;;;5.72;;
12141;SDS011;6134;59.284;18.022;2024-02-15T02:24:55;10.20;;;5.53;;
12141;SDS011;6134;59.284;18.022;2024-02-15T02:27:25;12.90;;;5.75;;
12141;SDS011;6134;59.284;18.022;2024-02-15T02:29:55;10.70;;;5.22;;
12141;SDS011;6134;59.284;18.022;2024-02-15T02:32:24;12.35;;;5.07;;
12141;SDS011;6134;59.284;18.022;2024-02-15T02:34:52;16.88;;;7.00;;
12141;SDS011;6134;59.284;18.022;2024-02-15T02:37:24;21.65;;;5.63;;
12141;SDS011;6134;59.284;18.022;2024-02-15T02:39:53;13.93;;;5.45;;
12141;SDS011;6134;59.284;18.022;2024-02-15T02:42:24;8.88;;;4.75;;
12141;SDS011;6134;59.284;18.022;2024-02-15T02:44:53;9.60;;;5.20;;
12141;SDS011;6134;59.284;18.022;2024-02-15T02:47:21;10.57;;;4.80;;
12141;SDS011;6134;59.284;18.022;2024-02-15T02:49:52;11.95;;;5.55;;
12141;SDS011;6134;59.284;18.022;2024-02-15T02:52:21;13.27;;;4.93;;
12141;SDS011;6134;59.284;18.022;2024-02-15T02:54:50;8.65;;;4.88;;
12141;SDS011;6134;59.284;18.022;2024-02-15T02:57:20;8.88;;;4.80;;
12141;SDS011;6134;59.284;18.022;2024-02-15T02:59:50;15.00;;;5.03;;
12141;SDS011;6134;59.284;18.022;2024-02-15T03:02:19;9.07;;;5.20;;
12141;SDS011;6134;59.284;18.022;2024-02-15T03:04:49;12.40;;;5.32;;
12141;SDS011;6134;59.284;18.022;2024-02-15T03:07:20;12.45;;;5.13;;
12141;SDS011;6134;59.284;18.022;2024-02-15T03:09:50;6.25;;;4.38;;
12141;SDS011;6134;59.284;18.022;2024-02-15T03:12:18;9.88;;;4.68;;
12141;SDS011;6134;59.284;18.022;2024-02-15T03:14:47;13.52;;;4.47;;
12141;SDS011;6134;59.284;18.022;2024-02-15T03:17:17;9.82;;;4.60;;
12141;SDS011;6134;59.284;18.022;2024-02-15T03:19:46;7.05;;;4.13;;
12141;SDS011;6134;59.284;18.022;2024-02-15T03:22:15;7.63;;;4.60;;
12141;SDS011;6134;59.284;18.022;2024-02-15T03:24:44;7.82;;;4.78;;
12141;SDS011;6134;59.284;18.022;2024-02-15T03:27:12;8.18;;;4.15;;
12141;SDS011;6134;59.284;18.022;2024-02-15T03:29:41;8.43;;;3.85;;
12141;SDS011;6134;59.284;18.022;2024-02-15T03:32:10;7.63;;;4.30;;
12141;SDS011;6134;59.284;18.022;2024-02-15T03:34:40;7.15;;;3.97;;
12141;SDS011;6134;59.284;18.022;2024-02-15T03:37:09;5.88;;;3.97;;
12141;SDS011;6134;59.284;18.022;2024-02-15T03:39:38;9.02;;;4.82;;
12141;SDS011;6134;59.284;18.022;2024-02-15T03:42:08;7.03;;;4.68;;
12141;SDS011;6134;59.284;18.022;2024-02-15T03:44:36;6.30;;;4.30;;
12141;SDS011;6134;59.284;18.022;2024-02-15T03:47:07;6.97;;;4.07;;
12141;SDS011;6134;59.284;18.022;2024-02-15T03:49:36;8.30;;;3.60;;
12141;SDS011;6134;59.284;18.022;2024-02-15T03:52:08;9.25;;;4.68;;
12141;SDS011;6134;59.284;18.022;2024-02-15T03:54:37;7.35;;;4.57;;
12141;SDS011;6134;59.284;18.022;2024-02-15T03:57:10;6.82;;;3.83;;
12141;SDS011;6134;59.284;18.022;2024-02-15T03:59:38;6.82;;;4.13;;
12141;SDS011;6134;59.284;18.022;2024-02-15T04:02:08;7.10;;;4.38;;
12141;SDS011;6134;59.284;18.022;2024-02-15T04:04:41;5.95;;;3.67;;
12141;SDS011;6134;59.284;18.022;2024-02-15T04:07:14;7.43;;;4.35;;
12141;SDS011;6134;59.284;18.022;2024-02-15T04:09:43;6.57;;;4.15;;
12141;SDS011;6134;59.284;18.022;2024-02-15T04:12:13;7.15;;;3.95;;
12141;SDS011;6134;59.284;18.022;2024-02-15T04:14:43;5.93;;;4.53;;
12141;SDS011;6134;59.284;18.022;2024-02-15T04:17:13;7.10;;;4.05;;
12141;SDS011;6134;59.284;18.022;2024-02-15T04:19:43;6.40;;;3.83;;
12141;SDS011;6134;59.284;18.022;2024-02-15T04:22:13;6.28;;;4.20;;
12141;SDS011;6134;59.284;18.022;2024-02-15T04:24:44;6.97;;;4.88;;
12141;SDS011;6134;59.284;18.022;2024-02-15T04:27:13;7.40;;;4.45;;
12141;SDS011;6134;59.284;18.022;2024-02-15T04:29:41;8.25;;;5.13;;
12141;SDS011;6134;59.284;18.022;2024-02-15T04:32:12;8.70;;;5.05;;
12141;SDS011;6134;59.284;18.022;2024-02-15T04:34:42;6.88;;;4.57;;
12141;SDS011;6134;59.284;18.022;2024-02-15T04:37:13;7.90;;;4.97;;
12141;SDS011;6134;59.284;18.022;2024-02-15T04:39:44;7.25;;;5.03;;
12141;SDS011;6134;59.284;18.022;2024-02-15T04:42:14;9.43;;;5.40;;
12141;SDS011;6134;59.284;18.022;2024-02-15T04:44:45;6.88;;;4.38;;
12141;SDS011;6134;59.284;18.022;2024-02-15T04:47:14;7.85;;;4.55;;
12141;SDS011;6134;59.284;18.022;2024-02-15T04:49:43;8.48;;;5.20;;
12141;SDS011;6134;59.284;18.022;2024-02-15T04:52:11;8.32;;;5.10;;
12141;SDS011;6134;59.284;18.022;2024-02-15T04:54:46;7.50;;;5.30;;
12141;SDS011;6134;59.284;18.022;2024-02-15T04:57:15;8.15;;;4.97;;
12141;SDS011;6134;59.284;18.022;2024-02-15T04:59:44;9.57;;;5.55;;
12141;SDS011;6134;59.284;18.022;2024-02-15T05:02:15;8.02;;;5.47;;
12141;SDS011;6134;59.284;18.022;2024-02-15T05:04:44;10.63;;;5.47;;
12141;SDS011;6134;59.284;18.022;2024-02-15T05:07:14;13.60;;;6.22;;
12141;SDS011;6134;59.284;18.022;2024-02-15T05:09:43;19.88;;;5.65;;
12141;SDS011;6134;59.284;18.022;2024-02-15T05:12:21;9.48;;;4.95;;
12141;SDS011;6134;59.284;18.022;2024-02-15T05:14:50;10.35;;;4.85;;
12141;SDS011;6134;59.284;18.022;2024-02-15T05:17:20;9.40;;;4.63;;
12141;SDS011;6134;59.284;18.022;2024-02-15T05:19:49;7.70;;;4.70;;
12141;SDS011;6134;59.284;18.022;2024-02-15T05:22:18;9.18;;;4.53;;
12141;SDS011;6134;59.284;18.022;2024-02-15T05:24:46;8.23;;;4.57;;
12141;SDS011;6134;59.284;18.022;2024-02-15T05:27:16;7.82;;;4.70;;
12141;SDS011;6134;59.284;18.022;2024-02-15T05:29:46;10.23;;;4.78;;
12141;SDS011;6134;59.284;18.022;2024-02-15T05:32:15;9.10;;;4.90;;
12141;SDS011;6134;59.284;18.022;2024-02-15T05:34:46;14.15;;;5.65;;
12141;SDS011;6134;59.284;18.022;2024-02-15T05:37:15;14.10;;;4.80;;
12141;SDS011;6134;59.284;18.022;2024-02-15T05:39:44;10.30;;;5.97;;
12141;SDS011;6134;59.284;18.022;2024-02-15T05:42:13;20.45;;;5.90;;
12141;SDS011;6134;59.284;18.022;2024-02-15T05:44:43;10.00;;;5.03;;
12141;SDS011;6134;59.284;18.022;2024-02-15T05:47:12;7.93;;;4.72;;
12141;SDS011;6134;59.284;18.022;2024-02-15T05:49:41;9.85;;;4.85;;
12141;SDS011;6134;59.284;18.022;2024-02-15T05:52:10;8.43;;;4.85;;
12141;SDS011;6134;59.284;18.022;2024-02-15T05:54:42;12.18;;;5.32;;
12141;SDS011;6134;59.284;18.022;2024-02-15T05:57:12;9.80;;;4.70;;
12141;SDS011;6134;59.284;18.022;2024-02-15T05:59:42;8.35;;;4.85;;
12141;SDS011;6134;59.284;18.022;2024-02-15T06:02:12;8.30;;;5.07;;
12141;SDS011;6134;59.284;18.022;2024-02-15T06:04:40;8.05;;;4.53;;
12141;SDS011;6134;59.284;18.022;2024-02-15T06:07:10;12.90;;;4.05;;
12141;SDS011;6134;59.284;18.022;2024-02-15T06:09:42;11.10;;;4.53;;
12141;SDS011;6134;59.284;18.022;2024-02-15T06:12:11;15.40;;;4.82;;
12141;SDS011;6134;59.284;18.022;2024-02-15T06:14:39;8.32;;;4.43;;
12141;SDS011;6134;59.284;18.022;2024-02-15T06:17:08;10.25;;;4.95;;
12141;SDS011;6134;59.284;18.022;2024-02-15T06:19:38;10.00;;;4.57;;
12141;SDS011;6134;59.284;18.022;2024-02-15T06:22:07;11.38;;;4.65;;
12141;SDS011;6134;59.284;18.022;2024-02-15T06:24:36;8.43;;;4.97;;
12141;SDS011;6134;59.284;18.022;2024-02-15T06:27:04;9.30;;;4.60;;
12141;SDS011;6134;59.284;18.022;2024-02-15T06:29:33;8.18;;;4.82;;
12141;SDS011;6134;59.284;18.022;2024-02-15T06:32:20;11.20;;;5.22;;
12141;SDS011;6134;59.284;18.022;2024-02-15T06:35:07;13.45;;;6.13;;
12141;SDS011;6134;59.284;18.022;2024-02-15T06:37:56;14.48;;;5.25;;
12141;SDS011;6134;59.284;18.022;2024-02-15T06:40:43;17.88;;;5.63;;
12141;SDS011;6134;59.284;18.022;2024-02-15T06:43:12;13.30;;;6.43;;
12141;SDS011;6134;59.284;18.022;2024-02-15T06:45:40;16.77;;;6.38;;
12141;SDS011;6134;59.284;18.022;2024-02-15T06:48:13;12.25;;;5.85;;
12141;SDS011;6134;59.284;18.022;2024-02-15T06:50:43;11.30;;;6.30;;
12141;SDS011;6134;59.284;18.022;2024-02-15T06:53:12;13.35;;;6.40;;
12141;SDS011;6134;59.284;18.022;2024-02-15T06:55:43;10.85;;;5.72;;
12141;SDS011;6134;59.284;18.022;2024-02-15T06:58:13;12.43;;;6.05;;
12141;SDS011;6134;59.284;18.022;2024-02-15T07:00:42;20.42;;;6.90;;
12141;SDS011;6134;59.284;18.022;2024-02-15T07:03:11;22.48;;;6.45;;
12141;SDS011;6134;59.284;18.022;2024-02-15T07:05:39;12.73;;;6.45;;
12141;SDS011;6134;59.284;18.022;2024-02-15T07:08:10;19.98;;;6.90;;
12141;SDS011;6134;59.284;18.022;2024-02-15T07:10:39;18.50;;;7.32;;
12141;SDS011;6134;59.284;18.022;2024-02-15T07:13:08;23.10;;;7.43;;
12141;SDS011;6134;59.284;18.022;2024-02-15T07:15:37;26.35;;;6.82;;
12141;SDS011;6134;59.284;18.022;2024-02-15T07:18:06;13.65;;;6.75;;
12141;SDS011;6134;59.284;18.022;2024-02-15T07:20:35;17.70;;;6.75;;
12141;SDS011;6134;59.284;18.022;2024-02-15T07:23:05;21.58;;;6.82;;
12141;SDS011;6134;59.284;18.022;2024-02-15T07:25:35;13.65;;;6.50;;
12141;SDS011;6134;59.284;18.022;2024-02-15T07:28:06;17.92;;;6.25;;
12141;SDS011;6134;59.284;18.022;2024-02-15T07:30:35;15.50;;;5.40;;
12141;SDS011;6134;59.284;18.022;2024-02-15T07:33:04;19.58;;;6.60;;
12141;SDS011;6134;59.284;18.022;2024-02-15T07:35:33;16.00;;;6.32;;
12141;SDS011;6134;59.284;18.022;2024-02-15T07:38:02;11.95;;;6.93;;
12141;SDS011;6134;59.284;18.022;2024-02-15T07:40:31;16.02;;;7.47;;
12141;SDS011;6134;59.284;18.022;2024-02-15T07:43:01;19.98;;;7.38;;
12141;SDS011;6134;59.284;18.022;2024-02-15T07:45:33;14.73;;;7.72;;
12141;SDS011;6134;59.284;18.022;2024-02-15T07:48:04;16.75;;;8.00;;
12141;SDS011;6134;59.284;18.022;2024-02-15T07:50:33;18.25;;;7.47;;
12141;SDS011;6134;59.284;18.022;2024-02-15T07:53:04;20.10;;;7.75;;
12141;SDS011;6134;59.284;18.022;2024-02-15T07:55:33;14.30;;;7.40;;
12141;SDS011;6134;59.284;18.022;2024-02-15T07:58:03;18.10;;;8.80;;
12141;SDS011;6134;59.284;18.022;2024-02-15T08:00:32;15.20;;;8.15;;
12141;SDS011;6134;59.284;18.022;2024-02-15T08:03:02;15.35;;;8.38;;
12141;SDS011;6134;59.284;18.022;2024-02-15T08:05:31;13.48;;;7.40;;
12141;SDS011;6134;59.284;18.022;2024-02-15T08:08:00;14.25;;;8.13;;
12141;SDS011;6134;59.284;18.022;2024-02-15T08:10:30;17.08;;;8.25;;
12141;SDS011;6134;59.284;18.022;2024-02-15T08:13:00;18.75;;;8.40;;
12141;SDS011;6134;59.284;18.022;2024-02-15T08:15:30;24.20;;;8.80;;
12141;SDS011;6134;59.284;18.022;2024-02-15T08:17:59;18.83;;;9.52;;
12141;SDS011;6134;59.284;18.022;2024-02-15T08:20:32;17.23;;;8.55;;
12141;SDS011;6134;59.284;18.022;2024-02-15T08:23:01;17.83;;;8.77;;
12141;SDS011;6134;59.284;18.022;2024-02-15T08:25:30;16.65;;;9.00;;
12141;SDS011;6134;59.284;18.022;2024-02-15T08:27:59;19.33;;;8.73;;
12141;SDS011;6134;59.284;18.022;2024-02-15T08:30:33;16.90;;;8.57;;
12141;SDS011;6134;59.284;18.022;2024-02-15T08:33:03;18.17;;;9.63;;
12141;SDS011;6134;59.284;18.022;2024-02-15T08:35:32;19.55;;;10.48;;
12141;SDS011;6134;59.284;18.022;2024-02-15T08:38:02;19.23;;;10.18;;
12141;SDS011;6134;59.284;18.022;2024-02-15T08:40:32;24.08;;;10.13;;
12141;SDS011;6134;59.284;18.022;2024-02-15T08:43:01;15.23;;;8.88;;
12141;SDS011;6134;59.284;18.022;2024-02-15T08:45:30;22.17;;;10.40;;
12141;SDS011;6134;59.284;18.022;2024-02-15T08:48:00;18.38;;;9.77;;
12141;SDS011;6134;59.284;18.022;2024-02-15T08:50:31;21.50;;;10.73;;
12141;SDS011;6134;59.284;18.022;2024-02-15T08:53:00;20.65;;;10.73;;
12141;SDS011;6134;59.284;18.022;2024-02-15T08:55:33;21.67;;;10.02;;
12141;SDS011;6134;59.284;18.022;2024-02-15T08:58:03;20.08;;;10.48;;
12141;SDS011;6134;59.284;18.022;2024-02-15T09:00:32;19.98;;;10.43;;
12141;SDS011;6134;59.284;18.022;2024-02-15T09:03:02;21.25;;;10.63;;
12141;SDS011;6134;59.284;18.022;2024-02-15T09:05:31;21.00;;;10.23;;
12141;SDS011;6134;59.284;18.022;2024-02-15T09:08:00;20.33;;;10.75;;
12141;SDS011;6134;59.284;18.022;2024-02-15T09:10:31;15.50;;;9.75;;
12141;SDS011;6134;59.284;18.022;2024-02-15T09:13:00;17.38;;;9.80;;
12141;SDS011;6134;59.284;18.022;2024-02-15T09:15:32;17.77;;;9.73;;
12141;SDS011;6134;59.284;18.022;2024-02-15T09:18:04;17.33;;;8.80;;
12141;SDS011;6134;59.284;18.022;2024-02-15T09:20:36;16.30;;;9.95;;
12141;SDS011;6134;59.284;18.022;2024-02-15T09:23:11;16.50;;;9.93;;
12141;SDS011;6134;59.284;18.022;2024-02-15T09:25:41;17.58;;;9.20;;
12141;SDS011;6134;59.284;18.022;2024-02-15T09:28:10;14.23;;;9.00;;
12141;SDS011;6134;59.284;18.022;2024-02-15T09:30:40;18.45;;;9.75;;
12141;SDS011;6134;59.284;18.022;2024-02-15T09:33:10;16.70;;;9.52;;
12141;SDS011;6134;59.284;18.022;2024-02-15T09:35:39;15.80;;;9.68;;
12141;SDS011;6134;59.284;18.022;2024-02-15T09:38:08;16.00;;;9.15;;
12141;SDS011;6134;59.284;18.022;2024-02-15T09:40:36;15.68;;;9.30;;
12141;SDS011;6134;59.284;18.022;2024-02-15T09:43:07;20.38;;;10.90;;
12141;SDS011;6134;59.284;18.022;2024-02-15T09:45:36;17.27;;;10.65;;
12141;SDS011;6134;59.284;18.022;2024-02-15T09:48:05;16.83;;;10.15;;
12141;SDS011;6134;59.284;18.022;2024-02-15T09:50:37;17.48;;;9.43;;
12141;SDS011;6134;59.284;18.022;2024-02-15T09:53:09;17.85;;;10.27;;
12141;SDS011;6134;59.284;18.022;2024-02-15T09:55:39;16.33;;;9.32;;
12141;SDS011;6134;59.284;18.022;2024-02-15T09:58:09;17.35;;;9.85;;
12141;SDS011;6134;59.284;18.022;2024-02-15T10:00:39;16.02;;;9.45;;
12141;SDS011;6134;59.284;18.022;2024-02-15T10:03:09;15.82;;;9.57;;
12141;SDS011;6134;59.284;18.022;2024-02-15T10:05:41;18.10;;;10.07;;
12141;SDS011;6134;59.284;18.022;2024-02-15T10:08:10;18.17;;;10.13;;
12141;SDS011;6134;59.284;18.022;2024-02-15T10:10:39;19.83;;;10.68;;
12141;SDS011;6134;59.284;18.022;2024-02-15T10:13:10;20.33;;;10.35;;
12141;SDS011;6134;59.284;18.022;2024-02-15T10:15:41;17.00;;;10.50;;
12141;SDS011;6134;59.284;18.022;2024-02-15T10:18:11;14.75;;;9.82;;
12141;SDS011;6134;59.284;18.022;2024-02-15T10:20:42;14.43;;;8.65;;
12141;SDS011;6134;59.284;18.022;2024-02-15T10:23:13;13.90;;;9.15;;
12141;SDS011;6134;59.284;18.022;2024-02-15T10:25:45;15.15;;;10.13;;
12141;SDS011;6134;59.284;18.022;2024-02-15T10:28:14;15.43;;;9.98;;
12141;SDS011;6134;59.284;18.022;2024-02-15T10:30:50;16.10;;;8.32;;
12141;SDS011;6134;59.284;18.022;2024-02-15T10:33:25;14.68;;;9.50;;
12141;SDS011;6134;59.284;18.022;2024-02-15T10:36:06;13.52;;;9.15;;
12141;SDS011;6134;59.284;18.022;2024-02-15T10:38:35;13.27;;;9.35;;
12141;SDS011;6134;59.284;18.022;2024-02-15T10:41:04;15.63;;;9.98;;
12141;SDS011;6134;59.284;18.022;2024-02-15T10:43:34;12.95;;;9.00;;
12141;SDS011;6134;59.284;18.022;2024-02-15T10:46:04;13.88;;;8.95;;
12141;SDS011;6134;59.284;18.022;2024-02-15T10:48:34;13.55;;;9.07;;
12141;SDS011;6134;59.284;18.022;2024-02-15T10:51:03;12.73;;;8.40;;
12141;SDS011;6134;59.284;18.022;2024-02-15T10:53:33;14.05;;;9.15;;
12141;SDS011;6134;59.284;18.022;2024-02-15T10:56:05;15.65;;;9.80;;
12141;SDS011;6134;59.284;18.022;2024-02-15T10:58:39;15.75;;;9.13;;
12141;SDS011;6134;59.284;18.022;2024-02-15T11:01:10;15.50;;;9.45;;
12141;SDS011;6134;59.284;18.022;2024-02-15T11:03:50;14.77;;;9.15;;
12141;SDS011;6134;59.284;18.022;2024-02-15T11:06:20;11.00;;;8.65;;
12141;SDS011;6134;59.284;18.022;2024-02-15T11:08:50;11.77;;;8.02;;
12141;SDS011;6134;59.284;18.022;2024-02-15T11:11:19;11.98;;;8.77;;
12141;SDS011;6134;59.284;18.022;2024-02-15T11:13:48;11.93;;;8.57;;
12141;SDS011;6134;59.284;18.022;2024-02-15T11:19:05;12.90;;;8.85;;
12141;SDS011;6134;59.284;18.022;2024-02-15T11:24:28;12.68;;;8.27;;
12141;SDS011;6134;59.284;18.022;2024-02-15T11:26:59;12.32;;;8.73;;
12141;SDS011;6134;59.284;18.022;2024-02-15T11:29:49;12.50;;;8.25;;
12141;SDS011;6134;59.284;18.022;2024-02-15T11:35:11;12.25;;;8.50;;
12141;SDS011;6134;59.284;18.022;2024-02-15T11:37:54;14.32;;;9.05;;
12141;SDS011;6134;59.284;18.022;2024-02-15T11:40:27;11.73;;;8.63;;
12141;SDS011;6134;59.284;18.022;2024-02-15T11:42:56;13.35;;;9.27;;
12141;SDS011;6134;59.284;18.022;2024-02-15T11:45:27;15.07;;;8.88;;
12141;SDS011;6134;59.284;18.022;2024-02-15T11:47:59;11.40;;;7.57;;
12141;SDS011;6134;59.284;18.022;2024-02-15T11:50:30;11.18;;;7.82;;
12141;SDS011;6134;59.284;18.022;2024-02-15T11:53:03;11.85;;;7.70;;
12141;SDS011;6134;59.284;18.022;2024-02-15T11:55:39;12.23;;;8.65;;
12141;SDS011;6134;59.284;18.022;2024-02-15T11:58:09;14.07;;;9.00;;
12141;SDS011;6134;59.284;18.022;2024-02-15T12:00:48;11.65;;;8.23;;
12141;SDS011;6134;59.284;18.022;2024-02-15T12:03:35;15.27;;;9.13;;
12141;SDS011;6134;59.284;18.022;2024-02-15T12:06:32;15.13;;;9.07;;
12141;SDS011;6134;59.284;18.022;2024-02-15T12:09:18;12.52;;;9.48;;
12141;SDS011;6134;59.284;18.022;2024-02-15T12:12:07;14.40;;;9.15;;
12141;SDS011;6134;59.284;18.022;2024-02-15T12:14:58;15.90;;;9.15;;
12141;SDS011;6134;59.284;18.022;2024-02-15T12:17:45;16.85;;;10.15;;
12141;SDS011;6134;59.284;18.022;2024-02-15T12:20:32;17.50;;;9.27;;
12141;SDS011;6134;59.284;18.022;2024-02-15T12:23:01;18.50;;;10.45;;
12141;SDS011;6134;59.284;18.022;2024-02-15T12:25:34;17.00;;;9.38;;
12141;SDS011;6134;59.284;18.022;2024-02-15T12:28:06;17.15;;;9.98;;
12141;SDS011;6134;59.284;18.022;2024-02-15T12:30:35;15.52;;;9.82;;
12141;SDS011;6134;59.284;18.022;2024-02-15T12:33:10;16.35;;;9.80;;
12141;SDS011;6134;59.284;18.022;2024-02-15T12:35:46;15.40;;;10.45;;
12141;SDS011;6134;59.284;18.022;2024-02-15T12:38:17;18.98;;;10.63;;
12141;SDS011;6134;59.284;18.022;2024-02-15T12:40:45;16.63;;;10.30;;
12141;SDS011;6134;59.284;18.022;2024-02-15T12:43:16;17.33;;;10.52;;
12141;SDS011;6134;59.284;18.022;2024-02-15T12:45:45;13.77;;;9.38;;
12141;SDS011;6134;59.284;18.022;2024-02-15T12:48:14;16.52;;;11.02;;
12141;SDS011;6134;59.284;18.022;2024-02-15T12:50:45;17.67;;;10.60;;
12141;SDS011;6134;59.284;18.022;2024-02-15T12:53:20;13.65;;;9.32;;
12141;SDS011;6134;59.284;18.022;2024-02-15T12:55:53;15.02;;;9.48;;
12141;SDS011;6134;59.284;18.022;2024-02-15T12:58:27;18.10;;;11.27;;
12141;SDS011;6134;59.284;18.022;2024-02-15T13:00:57;16.02;;;10.18;;
12141;SDS011;6134;59.284;18.022;2024-02-15T13:03:27;15.73;;;10.02;;
12141;SDS011;6134;59.284;18.022;2024-02-15T13:05:56;21.92;;;11.40;;
12141;SDS011;6134;59.284;18.022;2024-02-15T13:08:25;19.23;;;11.05;;
12141;SDS011;6134;59.284;18.022;2024-02-15T13:10:54;16.80;;;10.38;;
12141;SDS011;6134;59.284;18.022;2024-02-15T13:13:23;15.63;;;11.07;;
12141;SDS011;6134;59.284;18.022;2024-02-15T13:15:53;18.10;;;10.07;;
12141;SDS011;6134;59.284;18.022;2024-02-15T13:18:22;16.95;;;11.10;;
12141;SDS011;6134;59.284;18.022;2024-02-15T13:20:52;17.42;;;10.20;;
12141;SDS011;6134;59.284;18.022;2024-02-15T13:23:23;16.92;;;11.00;;
12141;SDS011;6134;59.284;18.022;2024-02-15T13:25:52;17.45;;;11.00;;
12141;SDS011;6134;59.284;18.022;2024-02-15T13:28:25;17.88;;;11.20;;
12141;SDS011;6134;59.284;18.022;2024-02-15T13:30:55;18.20;;;10.57;;
12141;SDS011;6134;59.284;18.022;2024-02-15T13:33:23;17.02;;;9.93;;
12141;SDS011;6134;59.284;18.022;2024-02-15T13:35:53;16.33;;;10.65;;
12141;SDS011;6134;59.284;18.022;2024-02-15T13:38:22;21.15;;;10.75;;
12141;SDS011;6134;59.284;18.022;2024-02-15T13:40:51;15.38;;;9.93;;
12141;SDS011;6134;59.284;18.022;2024-02-15T13:43:22;17.25;;;9.45;;
12141;SDS011;6134;59.284;18.022;2024-02-15T13:45:51;17.15;;;10.23;;
12141;SDS011;6134;59.284;18.022;2024-02-15T13:48:21;15.63;;;9.52;;
12141;SDS011;6134;59.284;18.022;2024-02-15T13:50:52;18.75;;;10.35;;
12141;SDS011;6134;59.284;18.022;2024-02-15T13:53:21;17.45;;;9.55;;
12141;SDS011;6134;59.284;18.022;2024-02-15T13:55:52;14.57;;;8.93;;
12141;SDS011;6134;59.284;18.022;2024-02-15T13:58:20;17.23;;;9.93;;
12141;SDS011;6134;59.284;18.022;2024-02-15T14:00:50;15.85;;;10.02;;
12141;SDS011;6134;59.284;18.022;2024-02-15T14:03:19;17.15;;;10.52;;
12141;SDS011;6134;59.284;18.022;2024-02-15T14:05:50;23.65;;;11.02;;
12141;SDS011;6134;59.284;18.022;2024-02-15T14:08:19;19.48;;;9.75;;
12141;SDS011;6134;59.284;18.022;2024-02-15T14:10:49;20.50;;;12.93;;
12141;SDS011;6134;59.284;18.022;2024-02-15T14:13:18;20.35;;;12.57;;
12141;SDS011;6134;59.284;18.022;2024-02-15T14:15:49;21.63;;;10.75;;
12141;SDS011;6134;59.284;18.022;2024-02-15T14:18:18;21.63;;;10.80;;
12141;SDS011;6134;59.284;18.022;2024-02-15T14:20:47;19.17;;;10.73;;
12141;SDS011;6134;59.284;18.022;2024-02-15T14:23:19;21.52;;;11.05;;
12141;SDS011;6134;59.284;18.022;2024-02-15T14:25:47;19.25;;;10.35;;
12141;SDS011;6134;59.284;18.022;2024-02-15T14:28:16;22.38;;;10.70;;
12141;SDS011;6134;59.284;18.022;2024-02-15T14:30:45;22.02;;;10.57;;
12141;SDS011;6134;59.284;18.022;2024-02-15T14:33:31;18.45;;;10.43;;
12141;SDS011;6134;59.284;18.022;2024-02-15T14:36:02;22.02;;;11.35;;
12141;SDS011;6134;59.284;18.022;2024-02-15T14:38:33;25.20;;;11.80;;
12141;SDS011;6134;59.284;18.022;2024-02-15T14:41:02;22.75;;;9.82;;
12141;SDS011;6134;59.284;18.022;2024-02-15T14:43:34;18.05;;;10.38;;
12141;SDS011;6134;59.284;18.022;2024-02-15T14:46:03;16.08;;;9.70;;
12141;SDS011;6134;59.284;18.022;2024-02-15T14:48:34;15.25;;;8.70;;
12141;SDS011;6134;59.284;18.022;2024-02-15T14:51:06;15.65;;;9.63;;
12141;SDS011;6134;59.284;18.022;2024-02-15T14:53:38;14.63;;;9.07;;
12141;SDS011;6134;59.284;18.022;2024-02-15T14:56:07;14.40;;;9.30;;
12141;SDS011;6134;59.284;18.022;2024-02-15T14:58:36;16.17;;;9.48;;
12141;SDS011;6134;59.284;18.022;2024-02-15T15:01:05;15.73;;;8.70;;
12141;SDS011;6134;59.284;18.022;2024-02-15T15:03:36;21.70;;;9.95;;
12141;SDS011;6134;59.284;18.022;2024-02-15T15:06:06;22.38;;;9.93;;
12141;SDS011;6134;59.284;18.022;2024-02-15T15:08:55;20.15;;;9.95;;